Time;durP1;ratioP1;P1;durP2;ratioP2;P2;SDS_P1;SDS_P2;PMS_P1;PMS_P2;Temp;Humidity;BMP_temperature;BMP_pressure;BME280_temperature;BME280_humidity;BME280_pressure;Samples;Min_cycle;Max_cycle;Signal;HPM_P1;HPM_P2
2021/11/25 00:02:15;;;;;;;78.05;34.25;;;;;;;-2.15;100.00;100708.84;6300395;28;20075;-72
2021/11/25 00:05:16;;;;;;;69.18;34.60;;;;;;;-2.17;100.00;100703.72;6266388;28;20118;-73
2021/11/25 00:08:17;;;;;;;78.70;35.45;;;;;;;-2.19;100.00;100705.44;6299624;28;21061;-72
2021/11/25 00:11:18;;;;;;;82.50;35.28;;;;;;;-2.28;100.00;100692.66;6299554;28;20051;-72
2021/11/25 00:14:19;;;;;;;70.78;34.60;;;;;;;-2.26;100.00;100703.72;6299252;28;20476;-70
2021/11/25 00:17:20;;;;;;;69.60;33.60;;;;;;;-2.28;100.00;100705.44;6300591;28;20040;-72
2021/11/25 00:20:21;;;;;;;74.47;35.20;;;;;;;-2.25;100.00;100702.88;6299343;28;20119;-72
2021/11/25 00:23:22;;;;;;;75.15;34.63;;;;;;;-2.26;100.00;100696.06;6299162;28;20436;-70
2021/11/25 00:26:24;;;;;;;75.50;34.45;;;;;;;-2.28;100.00;100702.88;6298994;28;20048;-70
2021/11/25 00:29:24;;;;;;;75.85;35.60;;;;;;;-2.34;100.00;100696.03;6300444;28;20041;-70
2021/11/25 00:32:25;;;;;;;72.20;33.58;;;;;;;-2.36;100.00;100699.44;6282472;28;20393;-70
2021/11/25 00:35:26;;;;;;;75.00;35.03;;;;;;;-2.33;100.00;100695.19;6298780;28;20063;-71
2021/11/25 00:38:26;;;;;;;72.88;37.15;;;;;;;-2.39;100.00;100694.31;6300110;28;20048;-70
2021/11/25 00:41:27;;;;;;;75.70;34.38;;;;;;;-2.37;100.00;100696.00;6300031;28;20041;-72
2021/11/25 00:44:28;;;;;;;83.43;38.15;;;;;;;-2.38;100.00;100696.88;6281980;28;20068;-72
2021/11/25 00:47:29;;;;;;;77.38;35.35;;;;;;;-2.35;100.00;100701.13;6299608;28;20127;-72
2021/11/25 00:50:30;;;;;;;82.22;37.78;;;;;;;-2.35;100.00;100698.59;6298018;28;20048;-72
2021/11/25 00:53:31;;;;;;;82.03;37.42;;;;;;;-2.46;100.00;100696.84;6299796;28;20040;-70
2021/11/25 00:56:32;;;;;;;76.50;35.97;;;;;;;-2.54;100.00;100684.91;6299518;28;20052;-72
2021/11/25 00:59:33;;;;;;;77.35;36.90;;;;;;;-2.44;100.00;100682.38;6298494;28;20048;-72
2021/11/25 01:02:33;;;;;;;71.50;33.75;;;;;;;-2.39;100.00;100671.31;6298032;28;20064;-72
2021/11/25 01:05:34;;;;;;;81.10;35.38;;;;;;;-2.46;100.00;100668.75;6298222;28;20072;-71
2021/11/25 01:08:35;;;;;;;73.93;34.20;;;;;;;-2.39;100.00;100671.31;6281504;28;20485;-70
2021/11/25 01:11:36;;;;;;;67.03;32.80;;;;;;;-2.40;100.00;100674.72;6298178;28;20049;-70
2021/11/25 01:14:37;;;;;;;75.10;32.85;;;;;;;-2.39;100.00;100667.03;6281483;28;20055;-73
2021/11/25 01:17:39;;;;;;;69.75;32.70;;;;;;;-2.42;100.00;100669.59;6299236;28;20048;-70
2021/11/25 01:20:43;;;;;;;62.92;31.05;;;;;;;-2.40;100.00;100667.91;6299167;28;20075;-70
2021/11/25 01:23:44;;;;;;;66.25;31.80;;;;;;;-2.42;100.00;100671.31;6298525;28;20040;-72
2021/11/25 01:26:45;;;;;;;61.45;29.33;;;;;;;-2.45;100.00;100660.25;6296853;28;20045;-72
2021/11/25 01:29:46;;;;;;;66.22;31.02;;;;;;;-2.46;100.00;100652.56;6298295;28;20740;-70
2021/11/25 01:32:46;;;;;;;61.00;29.88;;;;;;;-2.51;100.00;100646.56;6298212;28;20048;-72
2021/11/25 01:35:48;;;;;;;69.78;31.23;;;;;;;-2.47;100.00;100651.72;6280513;28;20048;-72
2021/11/25 01:38:49;;;;;;;65.10;31.90;;;;;;;-2.49;100.00;100645.75;6297380;28;20361;-73
2021/11/25 01:41:49;;;;;;;65.05;30.02;;;;;;;-2.44;100.00;100641.50;6297162;28;20044;-70
2021/11/25 01:44:50;;;;;;;66.55;30.42;;;;;;;-2.39;100.00;100627.84;6298169;28;20048;-70
2021/11/25 01:47:52;;;;;;;61.40;30.67;;;;;;;-2.33;100.00;100633.81;6314917;28;20154;-70
2021/11/25 01:50:53;;;;;;;;;;;;;;;-2.27;100.00;100643.22;6323656;28;20040;-72
2021/11/25 01:53:55;;;;;;;60.78;27.75;;;;;;;-2.26;100.00;100638.09;6323461;28;19928;-72
2021/11/25 01:56:57;;;;;;;65.53;30.08;;;;;;;-2.25;100.00;100636.41;6313950;28;20502;-70
2021/11/25 01:59:58;;;;;;;69.10;32.70;;;;;;;-2.22;100.00;100636.41;6297006;28;20065;-70
2021/11/25 02:03:00;;;;;;;65.70;29.60;;;;;;;-2.24;100.00;100621.06;6298006;28;20123;-72
2021/11/25 02:06:02;;;;;;;65.68;30.95;;;;;;;-2.10;100.00;100625.31;6296650;28;20045;-72
2021/11/25 02:09:04;;;;;;;63.95;29.95;;;;;;;-2.10;100.00;100621.06;6302772;28;20040;-72
2021/11/25 02:12:05;;;;;;;68.25;30.95;;;;;;;-2.06;100.00;100620.22;6321808;28;20062;-72
2021/11/25 02:15:08;;;;;;;75.77;31.93;;;;;;;-2.00;100.00;100624.47;6322350;28;20104;-72
2021/11/25 02:18:12;;;;;;;58.92;30.77;;;;;;;-1.92;100.00;100621.91;6302091;28;20102;-72
2021/11/25 02:21:14;;;;;;;63.58;31.85;;;;;;;-1.95;100.00;100612.53;6297207;28;20052;-72
2021/11/25 02:24:15;;;;;;;71.75;31.08;;;;;;;-1.92;100.00;100606.56;6297289;28;20044;-72
2021/11/25 02:27:19;;;;;;;59.17;28.60;;;;;;;-1.87;100.00;100615.09;6299526;28;20055;-72
2021/11/25 02:30:20;;;;;;;58.47;29.67;;;;;;;-1.87;100.00;100602.31;6295870;28;20071;-72
2021/11/25 02:33:21;;;;;;;63.58;30.48;;;;;;;-1.81;100.00;100607.41;6279772;28;20044;-72
2021/11/25 02:36:22;;;;;;;65.25;31.48;;;;;;;-1.75;100.00;100612.53;6297315;28;20044;-72
2021/11/25 02:39:23;;;;;;;64.07;30.77;;;;;;;-1.69;100.00;100602.28;6297376;28;20094;-72
2021/11/25 02:42:23;;;;;;;63.80;31.75;;;;;;;-1.72;100.00;100609.94;6297375;28;20055;-72
2021/11/25 02:45:27;;;;;;;60.88;30.58;;;;;;;-1.69;100.00;100601.41;6298602;28;20544;-71
2021/11/25 02:48:38;;;;;;;67.03;28.63;;;;;;;-1.62;100.00;100601.41;6321007;28;20054;-72
2021/11/25 02:51:39;;;;;;;58.28;29.35;;;;;;;-1.60;100.00;100591.16;6322140;28;20040;-73
2021/11/25 02:54:42;;;;;;;61.78;30.70;;;;;;;-1.58;100.00;100579.22;6338017;28;20077;-70
2021/11/25 02:57:44;;;;;;;65.75;31.45;;;;;;;-1.57;100.00;100583.47;6320774;28;20040;-70
2021/11/25 03:00:47;;;;;;;63.33;29.23;;;;;;;-1.48;100.00;100585.16;6304113;28;20047;-73
2021/11/25 03:03:49;;;;;;;65.97;30.65;;;;;;;-1.46;100.00;100580.88;6304185;28;20279;-72
2021/11/25 03:06:50;;;;;;;60.80;30.10;;;;;;;-1.44;100.00;100574.06;6320697;28;20042;-72
2021/11/25 03:09:50;;;;;;;60.45;29.48;;;;;;;-1.42;100.00;100574.91;6321431;28;20288;-72
2021/11/25 03:12:51;;;;;;;61.20;30.02;;;;;;;-1.44;100.00;100561.25;6321393;28;20408;-72
2021/11/25 03:15:53;;;;;;;55.40;27.95;;;;;;;-1.33;100.00;100556.09;6320372;28;20090;-73
2021/11/25 03:18:54;;;;;;;61.53;29.42;;;;;;;-1.30;100.00;100561.19;6319357;28;20500;-72
2021/11/25 03:21:55;;;;;;;59.80;29.65;;;;;;;-1.35;100.00;100557.81;6296575;28;20048;-72
2021/11/25 03:24:56;;;;;;;62.63;28.45;;;;;;;-1.37;100.00;100552.69;6317603;28;20048;-72
2021/11/25 03:27:57;;;;;;;59.50;29.42;;;;;;;-1.31;100.00;100546.69;6324168;28;20040;-72
2021/11/25 03:30:58;;;;;;;58.95;28.63;;;;;;;-1.29;100.00;100538.13;6325550;28;20032;-72
2021/11/25 03:34:01;;;;;;;57.38;28.48;;;;;;;-1.27;100.00;100533.88;6305514;28;20055;-72
2021/11/25 03:37:02;;;;;;;58.25;29.20;;;;;;;-1.22;100.00;100532.13;6301341;28;20121;-72
2021/11/25 03:40:06;;;;;;;62.92;28.83;;;;;;;-1.23;100.00;100521.91;6283671;28;20052;-72
2021/11/25 03:43:07;;;;;;;59.00;28.67;;;;;;;-1.19;100.00;100515.03;6300093;28;20040;-69
2021/11/25 03:46:08;;;;;;;60.13;28.95;;;;;;;-1.20;100.00;100511.63;6301263;28;20465;-70
2021/11/25 03:49:09;;;;;;;55.45;28.70;;;;;;;-1.24;100.00;100508.22;6300200;28;20404;-72
2021/11/25 03:52:10;;;;;;;53.50;28.52;;;;;;;-1.25;100.00;100506.53;6301095;28;20056;-70
2021/11/25 03:55:14;;;;;;;55.72;28.88;;;;;;;-1.27;100.00;100503.13;6301276;28;20048;-70
2021/11/25 03:58:15;;;;;;;61.40;27.08;;;;;;;-1.36;100.00;100505.75;6301150;28;20405;-72
2021/11/25 04:01:16;;;;;;;60.70;28.10;;;;;;;-1.39;100.00;100499.78;6300908;28;20056;-72
2021/11/25 04:04:17;;;;;;;54.22;26.40;;;;;;;-1.39;100.00;100499.78;6305165;28;20044;-72
2021/11/25 04:07:18;;;;;;;59.95;28.17;;;;;;;-1.35;100.00;100492.09;6307926;28;20115;-72
2021/11/25 04:10:18;;;;;;;55.10;28.83;;;;;;;-1.40;100.00;100488.72;6324689;28;20048;-72
2021/11/25 04:13:20;;;;;;;57.17;28.02;;;;;;;-1.48;100.00;100486.19;6324513;28;20040;-72
2021/11/25 04:16:21;;;;;;;55.40;26.47;;;;;;;-1.57;100.00;100483.66;6325335;28;20047;-73
2021/11/25 04:19:22;;;;;;;56.80;26.67;;;;;;;-1.58;100.00;100488.81;6325648;28;20280;-73
2021/11/25 04:22:23;;;;;;;55.90;27.75;;;;;;;-1.56;100.00;100482.81;6324371;28;20052;-71
2021/11/25 04:25:25;;;;;;;57.00;26.90;;;;;;;-1.58;100.00;100496.47;6325490;28;20051;-70
2021/11/25 04:28:26;;;;;;;51.17;26.73;;;;;;;-1.52;100.00;100486.22;6307494;28;20036;-72
2021/11/25 04:38:16;;;;;;;56.65;26.90;;;;;;;-1.27;100.00;100461.31;6324148;28;20065;-70
2021/11/25 04:41:17;;;;;;;56.80;28.13;;;;;;;-1.25;100.00;100464.72;6325031;28;20495;-70
2021/11/25 04:44:17;;;;;;;56.38;25.67;;;;;;;-1.23;100.00;100457.88;6325177;28;20048;-70
2021/11/25 04:47:18;;;;;;;52.08;24.90;;;;;;;-1.17;100.00;100451.84;6323821;28;20043;-70
2021/11/25 04:50:20;;;;;;;51.70;25.83;;;;;;;-1.12;100.00;100458.66;6324894;28;20403;-70
2021/11/25 04:53:21;;;;;;;51.17;25.88;;;;;;;-1.12;100.00;100448.41;6323524;28;20392;-70
2021/11/25 04:56:22;;;;;;;49.30;24.95;;;;;;;-1.14;100.00;100451.84;6323560;28;20204;-72
2021/11/25 04:59:23;;;;;;;51.22;25.77;;;;;;;-1.16;100.00;100456.13;6290325;28;20457;-72
2021/11/25 05:02:24;;;;;;;48.00;23.60;;;;;;;-1.17;100.00;100447.59;6287760;28;20094;-72
2021/11/25 05:05:25;;;;;;;56.05;26.13;;;;;;;-1.14;100.00;100439.03;6298505;28;20049;-73
2021/11/25 05:08:26;;;;;;;49.25;24.50;;;;;;;-1.17;100.00;100434.81;6305816;28;20043;-72
2021/11/25 05:11:26;;;;;;;50.20;25.25;;;;;;;-1.20;100.00;100434.81;6308166;28;20493;-72
2021/11/25 05:14:27;;;;;;;52.15;24.08;;;;;;;-1.22;100.00;100437.38;6323516;28;20044;-72
2021/11/25 05:17:28;;;;;;;59.10;25.65;;;;;;;-1.18;100.00;100429.69;6288520;28;20048;-73
2021/11/25 05:20:29;;;;;;;56.90;26.98;;;;;;;-1.06;100.00;100422.75;6299349;28;20102;-72
2021/11/25 05:23:30;;;;;;;66.38;30.60;;;;;;;-1.12;100.00;100415.13;6307813;28;20044;-72
2021/11/25 05:26:31;;;;;;;63.67;31.10;;;;;;;-1.14;100.00;100411.72;6322753;28;20484;-70
2021/11/25 05:29:31;;;;;;;49.00;25.75;;;;;;;-1.15;100.00;100409.16;6301266;28;20051;-70
2021/11/25 05:32:32;;;;;;;49.55;26.48;;;;;;;-1.13;100.00;100397.19;6301673;28;20127;-71
2021/11/25 05:35:33;;;;;;;51.15;25.55;;;;;;;-1.14;100.00;100392.94;6297617;28;20048;-72
2021/11/25 05:38:34;;;;;;;46.53;25.02;;;;;;;-1.08;100.00;100391.19;6298629;28;20044;-72
2021/11/25 05:41:35;;;;;;;51.20;23.63;;;;;;;-1.02;100.00;100382.59;6318214;28;20048;-72
2021/11/25 05:44:36;;;;;;;56.28;26.85;;;;;;;-0.98;100.00;100404.78;6321894;28;20036;-72
2021/11/25 05:47:39;;;;;;;46.15;24.88;;;;;;;-0.85;100.00;100408.06;6310240;28;20053;-72
2021/11/25 05:50:40;;;;;;;49.00;24.33;;;;;;;-0.79;100.00;100410.59;6295915;28;20439;-73
2021/11/25 05:53:41;;;;;;;50.05;24.65;;;;;;;-0.77;100.00;100418.28;6297035;28;20033;-72
2021/11/25 05:56:42;;;;;;;43.78;23.80;;;;;;;-0.83;100.00;100409.75;6298334;28;20044;-72
2021/11/25 05:59:42;;;;;;;45.17;23.45;;;;;;;-0.84;100.00;100410.63;6315165;28;20063;-70
2021/11/25 06:02:45;;;;;;;47.75;24.15;;;;;;;-0.83;100.00;100404.63;6303835;28;20045;-72
2021/11/25 06:05:46;;;;;;;54.55;25.40;;;;;;;-0.82;100.00;100415.75;6297867;28;20381;-71
2021/11/25 06:08:48;;;;;;;73.53;33.17;;;;;;;-0.75;100.00;100413.97;6296547;28;20044;-71
2021/11/25 06:11:49;;;;;;;65.00;32.00;;;;;;;-0.69;100.00;100414.78;6280004;28;20048;-70
2021/11/25 06:14:50;;;;;;;71.95;34.28;;;;;;;-0.62;100.00;100411.31;6299469;28;20732;-70
2021/11/25 06:17:51;;;;;;;72.18;30.98;;;;;;;-0.56;100.00;100414.66;6310872;28;20040;-70
2021/11/25 06:20:52;;;;;;;63.63;32.17;;;;;;;-0.64;100.00;100409.59;6322299;28;20089;-72
2021/11/25 06:23:53;;;;;;;65.70;28.13;;;;;;;-0.61;100.00;100402.72;6304484;28;20504;-70
2021/11/25 06:26:54;;;;;;;46.40;27.05;;;;;;;-0.53;100.00;100415.47;6309573;28;20057;-70
2021/11/25 06:29:54;;;;;;;54.13;28.17;;;;;;;-0.48;100.00;100421.41;6304681;28;20407;-71
2021/11/25 06:32:55;;;;;;;51.22;25.27;;;;;;;-0.47;100.00;100417.16;6307493;28;20047;-71
2021/11/25 06:35:56;;;;;;;59.72;27.15;;;;;;;-0.42;100.00;100420.50;6310367;28;20040;-71
2021/11/25 06:38:57;;;;;;;54.42;26.90;;;;;;;-0.45;100.00;100417.97;6304235;28;20048;-70
2021/11/25 06:41:57;;;;;;;51.60;26.27;;;;;;;-0.35;100.00;100409.31;6305865;28;20040;-71
2021/11/25 06:44:58;;;;;;;51.75;24.05;;;;;;;-0.32;100.00;100405.88;6280986;28;20052;-71
2021/11/25 06:47:59;;;;;;;48.50;26.17;;;;;;;-0.29;100.00;100409.25;6295040;28;20405;-71
2021/11/25 06:50:59;;;;;;;49.53;24.17;;;;;;;-0.19;100.00;100398.88;6297496;28;20044;-71
2021/11/25 06:54:00;;;;;;;52.50;24.73;;;;;;;-0.13;100.00;100391.13;6314098;28;20349;-70
2021/11/25 06:57:01;;;;;;;46.75;24.73;;;;;;;-0.09;100.00;100385.94;6319801;28;20503;-71
2021/11/25 07:00:08;;;;;;;41.85;21.88;;;;;;;-0.07;100.00;100378.22;6320173;28;20480;-71
2021/11/25 07:03:09;;;;;;;39.28;22.02;;;;;;;0.03;100.00;100386.66;6303839;28;20083;-70
2021/11/25 07:06:10;;;;;;;42.40;21.98;;;;;;;0.06;100.00;100382.31;6321689;28;20426;-72
2021/11/25 07:09:11;;;;;;;41.53;21.23;;;;;;;0.08;100.00;100377.19;6321236;28;20053;-72
2021/11/25 07:12:12;;;;;;;38.60;21.02;;;;;;;0.11;100.00;100374.59;6298888;28;20052;-72
2021/11/25 07:15:19;;;;;;;40.28;20.08;;;;;;;0.09;100.00;100369.47;6296661;28;20051;-70
2021/11/25 07:18:20;;;;;;;42.20;21.73;;;;;;;0.23;100.00;100371.84;6321026;28;20492;-72
2021/11/25 07:21:20;;;;;;;43.85;21.02;;;;;;;0.28;100.00;100362.38;6320995;28;20069;-70
2021/11/25 07:24:21;;;;;;;40.90;21.00;;;;;;;0.29;100.00;100358.94;6320010;28;20051;-70
2021/11/25 07:27:22;;;;;;;45.25;21.73;;;;;;;0.38;100.00;100353.66;6301697;28;20668;-70
2021/11/25 07:30:23;;;;;;;40.83;19.88;;;;;;;0.36;100.00;100352.00;6312243;28;20051;-70
2021/11/25 07:33:24;;;;;;;37.53;19.23;;;;;;;0.34;100.00;100348.59;6321302;28;20048;-71
2021/11/25 07:36:25;;;;;;;43.13;21.40;;;;;;;0.47;100.00;100356.97;6320326;28;20403;-70
2021/11/25 07:39:26;;;;;;;39.92;20.42;;;;;;;0.48;100.00;100356.94;6321451;28;20063;-71
2021/11/25 07:42:27;;;;;;;42.63;22.30;;;;;;;0.62;100.00;100351.63;6304746;28;20044;-71
2021/11/25 07:45:31;;;;;;;39.67;21.30;;;;;;;0.72;100.00;100357.44;6321051;28;20116;-70
2021/11/25 07:48:32;;;;;;;39.30;21.35;;;;;;;0.85;100.00;100351.25;6297671;28;20047;-70
2021/11/25 07:51:33;;;;;;;41.15;20.60;;;;;;;0.88;100.00;100352.91;6306847;28;20125;-71
2021/11/25 07:54:35;;;;;;;39.47;20.65;;;;;;;0.99;100.00;100348.47;6307683;28;20492;-71
2021/11/25 07:57:38;;;;;;;40.53;22.08;;;;;;;1.06;100.00;100347.47;6305546;28;20036;-72
2021/11/25 08:00:40;;;;;;;39.03;21.13;;;;;;;1.12;100.00;100347.34;6296104;28;20110;-71
2021/11/25 08:03:41;;;;;;;38.40;20.80;;;;;;;1.20;100.00;100353.22;6277734;28;20052;-71
2021/11/25 08:06:42;;;;;;;40.47;21.00;;;;;;;1.20;100.00;100337.78;6294677;28;20114;-71
2021/11/25 08:09:43;;;;;;;41.70;22.25;;;;;;;1.25;100.00;100340.28;6314966;28;20047;-71
2021/11/25 08:12:43;;;;;;;39.60;22.58;;;;;;;1.22;100.00;100326.66;6337774;28;20158;-71
2021/11/25 08:15:44;;;;;;;45.92;23.00;;;;;;;1.29;100.00;100321.34;6341067;28;20059;-71
2021/11/25 08:18:45;;;;;;;47.65;24.33;;;;;;;1.36;100.00;100307.50;6341128;28;20388;-69
2021/11/25 08:21:46;;;;;;;49.50;23.70;;;;;;;1.39;100.00;100330.56;6324990;28;20046;-70
2021/11/25 08:24:47;;;;;;;52.50;25.13;;;;;;;1.39;100.00;100320.28;6324402;28;20098;-70
2021/11/25 08:27:50;;;;;;;47.35;24.45;;;;;;;1.47;100.00;100309.03;6320039;28;20037;-69
2021/11/25 08:30:52;;;;;;;46.42;24.85;;;;;;;1.50;100.00;100321.81;6298314;28;20508;-71
2021/11/25 08:33:56;;;;;;;52.70;26.65;;;;;;;1.63;100.00;100304.41;6300000;28;20037;-71
2021/11/25 08:36:56;;;;;;;48.13;25.98;;;;;;;1.65;100.00;100318.09;6299558;28;20040;-71
2021/11/25 08:39:57;;;;;;;48.20;25.25;;;;;;;1.70;100.00;100308.56;6313483;28;20488;-72
2021/11/25 08:42:58;;;;;;;42.85;21.90;;;;;;;1.73;100.00;100300.75;6300025;28;20099;-72
2021/11/25 08:45:59;;;;;;;57.35;29.27;;;;;;;1.67;100.00;100294.03;6302649;28;20051;-70
2021/11/25 08:49:00;;;;;;;54.50;30.33;;;;;;;1.72;100.00;100289.63;6324919;28;20055;-71
2021/11/25 08:52:02;;;;;;;45.35;23.48;;;;;;;1.86;100.00;100296.22;6322026;28;20052;-71
2021/11/25 08:55:05;;;;;;;54.63;27.08;;;;;;;1.98;100.00;100294.25;6314122;28;20047;-71
2021/11/25 08:58:06;;;;;;;49.80;24.88;;;;;;;2.08;100.00;100299.16;6300523;28;20098;-70
2021/11/25 09:01:08;;;;;;;54.53;28.67;;;;;;;2.18;100.00;100293.81;6298014;28;20052;-71
2021/11/25 09:04:08;;;;;;;51.97;27.00;;;;;;;2.27;100.00;100290.16;6298648;28;20129;-70
2021/11/25 09:07:09;;;;;;;36.67;21.58;;;;;;;2.55;100.00;100282.63;6296858;28;20052;-70
2021/11/25 09:10:11;;;;;;;56.58;27.75;;;;;;;2.62;100.00;100284.16;6298226;28;20048;-70
2021/11/25 09:13:15;;;;;;;49.80;25.67;;;;;;;2.77;100.00;100279.53;6298359;28;20044;-70
2021/11/25 09:16:17;;;;;;;49.58;25.30;;;;;;;2.71;100.00;100283.09;6297152;28;20037;-71
2021/11/25 09:19:18;;;;;;;46.53;25.15;;;;;;;2.64;100.00;100279.00;6298787;28;20078;-70
2021/11/25 09:22:21;;;;;;;46.35;24.48;;;;;;;2.63;100.00;100272.13;6298948;28;20040;-71
2021/11/25 09:25:23;;;;;;;49.47;23.95;;;;;;;2.67;100.00;100266.00;6296812;28;20545;-70
2021/11/25 09:28:27;;;;;;;46.13;21.48;;;;;;;2.96;100.00;100249.78;6297009;28;20037;-71
2021/11/25 09:31:29;;;;;;;40.08;21.88;;;;;;;3.06;100.00;100259.88;6297894;28;20040;-70
2021/11/25 09:34:30;;;;;;;;;;;;;;;3.00;100.00;100246.25;6298627;28;20056;-71
2021/11/25 09:37:31;;;;;;;42.13;20.23;;;;;;;3.06;100.00;100252.97;6297733;28;19925;-71
2021/11/25 09:40:36;;;;;;;39.92;22.77;;;;;;;3.17;100.00;100247.53;6296792;28;20052;-71
2021/11/25 09:43:37;;;;;;;42.83;22.70;;;;;;;3.24;100.00;100251.63;6279841;28;20411;-71
2021/11/25 09:46:38;;;;;;;38.72;20.15;;;;;;;3.32;100.00;100238.53;6296862;28;20056;-71
2021/11/25 09:49:40;;;;;;;39.67;20.95;;;;;;;3.45;100.00;100232.13;6297490;28;20158;-71
2021/11/25 09:52:41;;;;;;;42.70;21.10;;;;;;;3.46;100.00;100233.84;6297454;28;20132;-71
2021/11/25 09:55:43;;;;;;;38.17;20.70;;;;;;;3.60;100.00;100220.50;6307320;28;20041;-72
2021/11/25 09:58:45;;;;;;;39.13;20.58;;;;;;;3.51;100.00;100213.06;6313451;28;20040;-70
2021/11/25 10:01:46;;;;;;;33.60;19.80;;;;;;;3.62;100.00;100217.03;6320947;28;20040;-70
2021/11/25 10:04:46;;;;;;;33.50;18.83;;;;;;;3.73;98.77;100210.69;6320807;28;20047;-72
2021/11/25 10:07:47;;;;;;;37.08;19.98;;;;;;;3.74;99.70;100218.34;6303886;28;20089;-72
2021/11/25 10:10:58;;;;;;;34.78;19.48;;;;;;;3.92;97.75;100223.88;6321433;28;20052;-72
2021/11/25 10:14:08;;;;;;;42.03;20.15;;;;;;;3.94;98.74;100215.19;6321985;28;20072;-70
2021/11/25 10:17:08;;;;;;;41.50;23.20;;;;;;;3.93;96.29;100216.09;6319533;28;20051;-72
2021/11/25 10:20:10;;;;;;;44.38;21.52;;;;;;;4.04;95.95;100208.84;6316113;28;20059;-70
2021/11/25 10:23:26;;;;;;;46.40;21.88;;;;;;;4.01;95.43;100201.16;6320910;28;20047;-71
2021/11/25 10:26:28;;;;;;;46.05;22.45;;;;;;;4.09;94.96;100200.09;6321079;28;20048;-71
2021/11/25 10:29:30;;;;;;;51.03;20.40;;;;;;;4.13;96.59;100192.19;6300997;28;20049;-72
2021/11/25 10:32:31;;;;;;;32.45;18.75;;;;;;;4.13;94.67;100187.03;6298158;28;20040;-72
2021/11/25 10:35:44;;;;;;;51.83;32.72;;;;;;;4.27;93.70;100181.41;6308329;28;20040;-71
2021/11/25 10:42:05;;;;;;;64.78;38.15;;;;;;;4.40;95.25;100168.94;6304053;28;20047;-71
2021/11/25 10:45:11;;;;;;;57.30;34.22;;;;;;;4.51;93.64;100158.22;6314524;28;20112;-70
2021/11/25 10:48:12;;;;;;;46.28;29.55;;;;;;;4.55;91.40;100155.50;6320326;28;20047;-73
2021/11/25 10:51:28;;;;;;;50.70;28.67;;;;;;;4.63;92.06;100153.50;6283118;28;20048;-70
2021/11/25 10:54:31;;;;;;;32.70;20.70;;;;;;;4.71;90.76;100145.47;6300681;28;20472;-71
2021/11/25 10:57:52;;;;;;;44.65;24.75;;;;;;;4.78;91.50;100146.94;6321258;28;20047;-72
2021/11/25 11:00:53;;;;;;;54.58;27.85;;;;;;;4.84;91.30;100138.13;6312762;28;20052;-72
2021/11/25 11:03:57;;;;;;;38.28;21.15;;;;;;;4.82;89.73;100129.59;6297648;28;20563;-72
2021/11/25 11:06:58;;;;;;;42.03;20.75;;;;;;;4.92;90.69;100123.19;6307850;28;20040;-72
2021/11/25 11:09:59;;;;;;;36.28;20.15;;;;;;;5.03;91.94;100115.03;6319960;28;20082;-71
2021/11/25 11:19:12;;;;;;;37.15;19.00;;;;;;;5.20;89.88;100094.53;6300436;28;20055;-72
2021/11/25 11:22:14;;;;;;;37.60;20.85;;;;;;;5.19;87.71;100081.69;6294512;28;20129;-72
2021/11/25 11:25:17;;;;;;;41.83;21.42;;;;;;;5.24;86.34;100088.34;6294798;28;20437;-72
2021/11/25 11:28:18;;;;;;;54.53;27.85;;;;;;;5.31;86.66;100078.59;6278407;28;20098;-72
2021/11/25 11:31:19;;;;;;;91.88;46.65;;;;;;;5.37;87.84;100077.50;6261493;28;20048;-72
2021/11/25 11:34:20;;;;;;;57.37;30.90;;;;;;;5.40;88.13;100080.00;6295764;28;20048;-71
2021/11/25 11:37:21;;;;;;;40.88;23.75;;;;;;;5.40;87.62;100078.25;6296299;28;20049;-71
2021/11/25 11:40:24;;;;;;;38.20;22.42;;;;;;;5.41;85.65;100074.75;6295581;28;20044;-71
2021/11/25 11:43:26;;;;;;;49.85;28.13;;;;;;;5.49;85.80;100065.84;6294791;28;20044;-71
2021/11/25 11:46:28;;;;;;;52.15;24.65;;;;;;;5.52;85.99;100061.41;6296340;28;20051;-71
2021/11/25 11:49:29;;;;;;;55.65;30.98;;;;;;;5.56;85.65;100050.00;6311555;28;20074;-71
2021/11/25 11:52:30;;;;;;;104.32;59.28;;;;;;;5.60;84.84;100038.63;6323692;28;20475;-71
2021/11/25 11:55:43;;;;;;;67.82;42.03;;;;;;;5.64;82.91;100029.84;6323171;28;20036;-71
2021/11/25 11:58:55;;;;;;;38.28;20.23;;;;;;;5.68;83.15;100027.94;6324768;28;20047;-71
2021/11/25 12:01:55;;;;;;;40.55;20.45;;;;;;;5.77;84.49;100021.56;6323119;28;20051;-71
2021/11/25 12:04:56;;;;;;;44.97;25.48;;;;;;;5.84;84.93;100020.38;6317122;28;20044;-71
2021/11/25 12:08:17;;;;;;;42.28;24.33;;;;;;;5.88;83.45;100014.19;6299478;28;20496;-69
2021/11/25 12:11:20;;;;;;;40.70;27.10;;;;;;;5.88;83.73;100014.19;6299302;28;20037;-70
2021/11/25 12:14:25;;;;;;;36.10;21.50;;;;;;;5.90;82.22;100008.94;6299041;28;20037;-69
2021/11/25 12:17:37;;;;;;;39.08;19.70;;;;;;;5.93;81.09;100006.19;6299259;28;20041;-70
2021/11/25 12:20:40;;;;;;;37.42;22.52;;;;;;;5.89;82.47;100000.34;6298728;28;20040;-71
2021/11/25 12:23:42;;;;;;;38.72;22.67;;;;;;;5.88;83.62;99988.28;6297741;28;20045;-72
2021/11/25 12:27:12;;;;;;;41.22;23.48;;;;;;;5.79;82.13;99994.69;6298673;28;20055;-72
2021/11/25 12:30:15;;;;;;;39.65;21.02;;;;;;;5.79;81.76;99984.34;6298731;28;20040;-72
2021/11/25 12:33:37;;;;;;;41.08;22.63;;;;;;;5.85;81.58;99983.25;6298860;28;20051;-71
2021/11/25 12:36:40;;;;;;;53.50;25.50;;;;;;;5.78;83.55;99981.81;6299563;28;20127;-71
2021/11/25 12:39:41;;;;;;;37.78;21.10;;;;;;;5.81;81.72;99971.34;6299435;28;20045;-71
2021/11/25 12:42:57;;;;;;;43.67;20.88;;;;;;;6.08;81.51;99976.25;6299630;28;20043;-71
2021/11/25 12:46:04;;;;;;;49.75;26.67;;;;;;;5.91;81.41;99964.00;6299386;28;20045;-71
2021/11/25 12:49:05;;;;;;;50.28;24.52;;;;;;;5.76;81.93;99957.72;6309500;28;20052;-71
2021/11/25 12:52:06;;;;;;;45.53;23.45;;;;;;;5.87;83.20;99952.94;6281570;28;20106;-71
2021/11/25 12:55:09;;;;;;;42.08;22.75;;;;;;;5.97;80.59;99949.09;6311233;28;20531;-72
2021/11/25 12:58:11;;;;;;;41.50;20.45;;;;;;;6.05;80.35;99957.38;6322647;28;20389;-71
2021/11/25 13:01:25;;;;;;;40.87;23.50;;;;;;;5.99;81.72;99954.16;6316112;28;20043;-72
2021/11/25 13:04:27;;;;;;;48.30;22.58;;;;;;;5.98;81.75;99950.75;6312937;28;20741;-73
2021/11/25 13:07:28;;;;;;;46.83;25.08;;;;;;;6.00;80.40;99942.91;6297051;28;20503;-72
2021/11/25 13:10:36;;;;;;;40.15;20.75;;;;;;;5.98;81.71;99937.81;6296819;28;20424;-73
2021/11/25 13:13:36;;;;;;;41.00;20.52;;;;;;;5.91;81.92;99933.78;6298225;28;20047;-73
2021/11/25 13:16:41;;;;;;;34.78;18.35;;;;;;;5.87;82.14;99937.41;6296831;28;20068;-73
2021/11/25 13:19:44;;;;;;;33.17;19.05;;;;;;;5.93;81.09;99923.34;6298063;28;20060;-73
2021/11/25 13:22:45;;;;;;;37.63;19.83;;;;;;;6.02;80.79;99917.78;6298232;28;20037;-72
2021/11/25 13:25:54;;;;;;;39.13;20.13;;;;;;;5.87;81.54;99919.28;6317537;28;20093;-72
2021/11/25 13:28:55;;;;;;;38.75;18.63;;;;;;;5.93;81.53;99919.00;6322858;28;20040;-71
2021/11/25 13:31:56;;;;;;;37.17;19.65;;;;;;;5.97;81.57;99907.66;6322943;28;20036;-70
2021/11/25 13:35:00;;;;;;;42.17;21.87;;;;;;;6.02;81.05;99907.44;6300018;28;20044;-70
2021/11/25 13:38:01;;;;;;;59.22;29.45;;;;;;;6.12;81.28;99900.09;6296341;28;20796;-70
2021/11/25 13:41:02;;;;;;;54.63;28.15;;;;;;;6.16;80.32;99906.81;6335591;27;20052;-70
2021/11/25 13:44:03;;;;;;;40.90;22.20;;;;;;;6.18;79.82;99897.22;6319145;28;20109;-70
2021/11/25 13:47:20;;;;;;;46.20;23.97;;;;;;;6.19;80.64;99901.50;6304232;28;20055;-71
2021/11/25 13:50:23;;;;;;;51.10;26.65;;;;;;;6.21;79.94;99899.66;6320617;28;20467;-71
2021/11/25 13:53:28;;;;;;;40.22;22.52;;;;;;;6.23;79.47;99890.91;6314064;28;20083;-71
2021/11/25 13:56:29;;;;;;;43.30;24.25;;;;;;;6.20;79.91;99900.59;6307991;28;20071;-71
2021/11/25 13:59:31;;;;;;;43.70;24.08;;;;;;;6.21;79.28;99891.91;6320789;28;20090;-71
2021/11/25 14:02:32;;;;;;;38.92;22.15;;;;;;;6.25;78.96;99883.06;6321208;28;20048;-71
2021/11/25 14:05:48;;;;;;;40.17;20.83;;;;;;;6.19;79.08;99876.41;6322431;28;20132;-71